sensor_id;sensor_type;location;lat;lon;timestamp;P1;P2;P0
55591;PMS5003;41454;53.396;-1.510;2023-08-07T00:01:27;5;5;
55591;PMS5003;41454;53.396;-1.510;2023-08-07T00:03:54;6;5;
55591;PMS5003;41454;53.396;-1.510;2023-08-07T00:06:21;5;5;
55591;PMS5003;41454;53.396;-1.510;2023-08-07T00:08:49;5;5;
55591;PMS5003;41454;53.396;-1.510;2023-08-07T00:11:15;5;5;
55591;PMS5003;41454;53.396;-1.510;2023-08-07T00:13:42;5;5;
55591;PMS5003;41454;53.396;-1.510;2023-08-07T00:16:09;5;5;
55591;PMS5003;41454;53.396;-1.510;2023-08-07T00:18:37;7;7;
55591;PMS5003;41454;53.396;-1.510;2023-08-07T00:21:03;4;4;
55591;PMS5003;41454;53.396;-1.510;2023-08-07T00:23:31;5;5;
55591;PMS5003;41454;53.396;-1.510;2023-08-07T00:25:58;6;5;
55591;PMS5003;41454;53.396;-1.510;2023-08-07T00:28:25;6;6;
55591;PMS5003;41454;53.396;-1.510;2023-08-07T00:30:52;6;6;
55591;PMS5003;41454;53.396;-1.510;2023-08-07T00:33:18;4;3;
55591;PMS5003;41454;53.396;-1.510;2023-08-07T00:35:45;5;5;
55591;PMS5003;41454;53.396;-1.510;2023-08-07T00:38:12;3;3;
55591;PMS5003;41454;53.396;-1.510;2023-08-07T00:40:39;6;6;
55591;PMS5003;41454;53.396;-1.510;2023-08-07T00:43:07;4;4;
55591;PMS5003;41454;53.396;-1.510;2023-08-07T00:45:35;8;6;
55591;PMS5003;41454;53.396;-1.510;2023-08-07T00:48:08;8;7;
55591;PMS5003;41454;53.396;-1.510;2023-08-07T00:50:36;4;4;
55591;PMS5003;41454;53.396;-1.510;2023-08-07T00:53:03;4;4;
55591;PMS5003;41454;53.396;-1.510;2023-08-07T00:55:31;7;6;
55591;PMS5003;41454;53.396;-1.510;2023-08-07T00:57:59;4;4;
55591;PMS5003;41454;53.396;-1.510;2023-08-07T01:00:27;7;4;
55591;PMS5003;41454;53.396;-1.510;2023-08-07T01:02:55;5;5;
55591;PMS5003;41454;53.396;-1.510;2023-08-07T01:05:23;5;5;
55591;PMS5003;41454;53.396;-1.510;2023-08-07T01:07:51;5;5;
55591;PMS5003;41454;53.396;-1.510;2023-08-07T01:10:22;6;4;
55591;PMS5003;41454;53.396;-1.510;2023-08-07T01:13:00;6;6;
55591;PMS5003;41454;53.396;-1.510;2023-08-07T01:15:35;6;6;
55591;PMS5003;41454;53.396;-1.510;2023-08-07T01:18:04;5;5;
55591;PMS5003;41454;53.396;-1.510;2023-08-07T01:20:33;4;4;
55591;PMS5003;41454;53.396;-1.510;2023-08-07T01:23:00;7;5;
55591;PMS5003;41454;53.396;-1.510;2023-08-07T01:25:27;5;5;
55591;PMS5003;41454;53.396;-1.510;2023-08-07T01:27:58;6;6;
55591;PMS5003;41454;53.396;-1.510;2023-08-07T01:30:34;6;5;
55591;PMS5003;41454;53.396;-1.510;2023-08-07T01:33:08;4;4;
55591;PMS5003;41454;53.396;-1.510;2023-08-07T01:35:40;7;6;
55591;PMS5003;41454;53.396;-1.510;2023-08-07T01:38:10;7;6;
55591;PMS5003;41454;53.396;-1.510;2023-08-07T01:40:38;5;5;
55591;PMS5003;41454;53.396;-1.510;2023-08-07T01:43:06;5;5;
55591;PMS5003;41454;53.396;-1.510;2023-08-07T01:45:34;5;5;
55591;PMS5003;41454;53.396;-1.510;2023-08-07T01:48:01;4;4;
55591;PMS5003;41454;53.396;-1.510;2023-08-07T01:50:28;6;5;
55591;PMS5003;41454;53.396;-1.510;2023-08-07T01:52:56;6;6;
55591;PMS5003;41454;53.396;-1.510;2023-08-07T01:55:23;4;4;
55591;PMS5003;41454;53.396;-1.510;2023-08-07T01:57:51;4;4;
55591;PMS5003;41454;53.396;-1.510;2023-08-07T02:00:19;6;5;
55591;PMS5003;41454;53.396;-1.510;2023-08-07T02:02:46;4;3;
55591;PMS5003;41454;53.396;-1.510;2023-08-07T02:05:14;6;4;
55591;PMS5003;41454;53.396;-1.510;2023-08-07T02:07:41;6;5;
55591;PMS5003;41454;53.396;-1.510;2023-08-07T02:10:09;4;4;
55591;PMS5003;41454;53.396;-1.510;2023-08-07T02:12:36;3;3;
55591;PMS5003;41454;53.396;-1.510;2023-08-07T02:15:05;4;4;
55591;PMS5003;41454;53.396;-1.510;2023-08-07T02:17:34;3;3;
55591;PMS5003;41454;53.396;-1.510;2023-08-07T02:20:01;4;4;
55591;PMS5003;41454;53.396;-1.510;2023-08-07T02:22:28;4;4;
55591;PMS5003;41454;53.396;-1.510;2023-08-07T02:24:55;4;4;
55591;PMS5003;41454;53.396;-1.510;2023-08-07T02:27:23;4;3;
55591;PMS5003;41454;53.396;-1.510;2023-08-07T02:29:49;5;5;
55591;PMS5003;41454;53.396;-1.510;2023-08-07T02:32:17;6;6;
55591;PMS5003;41454;53.396;-1.510;2023-08-07T02:34:44;6;5;
55591;PMS5003;41454;53.396;-1.510;2023-08-07T02:37:11;4;4;
55591;PMS5003;41454;53.396;-1.510;2023-08-07T02:39:38;4;4;
55591;PMS5003;41454;53.396;-1.510;2023-08-07T02:42:05;5;5;
55591;PMS5003;41454;53.396;-1.510;2023-08-07T02:44:32;6;6;
55591;PMS5003;41454;53.396;-1.510;2023-08-07T02:46:59;7;5;
55591;PMS5003;41454;53.396;-1.510;2023-08-07T02:49:26;3;3;
55591;PMS5003;41454;53.396;-1.510;2023-08-07T02:51:53;7;7;
55591;PMS5003;41454;53.396;-1.510;2023-08-07T02:54:20;7;6;
55591;PMS5003;41454;53.396;-1.510;2023-08-07T02:56:47;8;7;
55591;PMS5003;41454;53.396;-1.510;2023-08-07T02:59:15;5;5;
55591;PMS5003;41454;53.396;-1.510;2023-08-07T03:01:43;3;3;
55591;PMS5003;41454;53.396;-1.510;2023-08-07T03:04:10;5;4;
55591;PMS5003;41454;53.396;-1.510;2023-08-07T03:06:38;7;5;
55591;PMS5003;41454;53.396;-1.510;2023-08-07T03:09:04;5;5;
55591;PMS5003;41454;53.396;-1.510;2023-08-07T03:11:31;7;7;
55591;PMS5003;41454;53.396;-1.510;2023-08-07T03:13:58;6;6;
55591;PMS5003;41454;53.396;-1.510;2023-08-07T03:16:25;7;7;
55591;PMS5003;41454;53.396;-1.510;2023-08-07T03:18:57;6;6;
55591;PMS5003;41454;53.396;-1.510;2023-08-07T03:21:25;5;5;
55591;PMS5003;41454;53.396;-1.510;2023-08-07T03:23:51;7;7;
55591;PMS5003;41454;53.396;-1.510;2023-08-07T03:26:18;6;5;
55591;PMS5003;41454;53.396;-1.510;2023-08-07T03:28:45;6;6;
55591;PMS5003;41454;53.396;-1.510;2023-08-07T03:31:12;6;5;
55591;PMS5003;41454;53.396;-1.510;2023-08-07T03:33:39;6;5;
55591;PMS5003;41454;53.396;-1.510;2023-08-07T03:36:06;5;5;
55591;PMS5003;41454;53.396;-1.510;2023-08-07T03:38:32;3;3;
55591;PMS5003;41454;53.396;-1.510;2023-08-07T03:40:59;3;3;
55591;PMS5003;41454;53.396;-1.510;2023-08-07T03:43:27;4;4;
55591;PMS5003;41454;53.396;-1.510;2023-08-07T03:45:54;5;4;
55591;PMS5003;41454;53.396;-1.510;2023-08-07T03:48:22;5;5;
55591;PMS5003;41454;53.396;-1.510;2023-08-07T03:50:49;6;5;
55591;PMS5003;41454;53.396;-1.510;2023-08-07T03:53:16;3;3;
55591;PMS5003;41454;53.396;-1.510;2023-08-07T03:55:43;7;6;
55591;PMS5003;41454;53.396;-1.510;2023-08-07T03:58:15;6;5;
55591;PMS5003;41454;53.396;-1.510;2023-08-07T04:00:42;5;5;
55591;PMS5003;41454;53.396;-1.510;2023-08-07T04:03:09;6;6;
55591;PMS5003;41454;53.396;-1.510;2023-08-07T04:05:35;6;6;
55591;PMS5003;41454;53.396;-1.510;2023-08-07T04:08:02;5;5;
55591;PMS5003;41454;53.396;-1.510;2023-08-07T04:10:29;5;4;
55591;PMS5003;41454;53.396;-1.510;2023-08-07T04:12:56;6;6;
55591;PMS5003;41454;53.396;-1.510;2023-08-07T04:15:23;4;4;
55591;PMS5003;41454;53.396;-1.510;2023-08-07T04:17:50;3;3;
55591;PMS5003;41454;53.396;-1.510;2023-08-07T04:20:16;3;3;
55591;PMS5003;41454;53.396;-1.510;2023-08-07T04:22:44;5;3;
55591;PMS5003;41454;53.396;-1.510;2023-08-07T04:25:11;4;4;
55591;PMS5003;41454;53.396;-1.510;2023-08-07T04:27:37;3;3;
55591;PMS5003;41454;53.396;-1.510;2023-08-07T04:30:04;3;3;
55591;PMS5003;41454;53.396;-1.510;2023-08-07T04:32:32;5;5;
55591;PMS5003;41454;53.396;-1.510;2023-08-07T04:34:59;4;4;
55591;PMS5003;41454;53.396;-1.510;2023-08-07T04:37:27;3;2;
55591;PMS5003;41454;53.396;-1.510;2023-08-07T04:39:53;6;5;
55591;PMS5003;41454;53.396;-1.510;2023-08-07T04:42:20;5;4;
55591;PMS5003;41454;53.396;-1.510;2023-08-07T04:44:47;3;3;
55591;PMS5003;41454;53.396;-1.510;2023-08-07T04:47:14;2;2;
55591;PMS5003;41454;53.396;-1.510;2023-08-07T04:49:41;3;3;
55591;PMS5003;41454;53.396;-1.510;2023-08-07T04:52:08;1;1;
55591;PMS5003;41454;53.396;-1.510;2023-08-07T04:54:34;2;2;
55591;PMS5003;41454;53.396;-1.510;2023-08-07T04:57:01;4;3;
55591;PMS5003;41454;53.396;-1.510;2023-08-07T04:59:29;5;2;
55591;PMS5003;41454;53.396;-1.510;2023-08-07T05:01:55;2;2;
55591;PMS5003;41454;53.396;-1.510;2023-08-07T05:04:22;2;2;
55591;PMS5003;41454;53.396;-1.510;2023-08-07T05:06:49;4;4;
55591;PMS5003;41454;53.396;-1.510;2023-08-07T05:09:17;2;1;
55591;PMS5003;41454;53.396;-1.510;2023-08-07T05:11:43;2;2;
55591;PMS5003;41454;53.396;-1.510;2023-08-07T05:14:10;1;1;
55591;PMS5003;41454;53.396;-1.510;2023-08-07T05:16:37;3;2;
55591;PMS5003;41454;53.396;-1.510;2023-08-07T05:19:04;2;2;
55591;PMS5003;41454;53.396;-1.510;2023-08-07T05:21:30;1;1;
55591;PMS5003;41454;53.396;-1.510;2023-08-07T05:23:58;1;1;
55591;PMS5003;41454;53.396;-1.510;2023-08-07T05:26:25;2;2;
55591;PMS5003;41454;53.396;-1.510;2023-08-07T05:28:52;1;1;
55591;PMS5003;41454;53.396;-1.510;2023-08-07T05:31:19;2;2;
55591;PMS5003;41454;53.396;-1.510;2023-08-07T05:33:45;2;2;
55591;PMS5003;41454;53.396;-1.510;2023-08-07T05:36:12;1;1;
55591;PMS5003;41454;53.396;-1.510;2023-08-07T05:38:39;4;4;
55591;PMS5003;41454;53.396;-1.510;2023-08-07T05:41:05;1;1;
55591;PMS5003;41454;53.396;-1.510;2023-08-07T05:43:32;2;2;
55591;PMS5003;41454;53.396;-1.510;2023-08-07T05:45:59;2;2;
55591;PMS5003;41454;53.396;-1.510;2023-08-07T05:48:26;2;2;
55591;PMS5003;41454;53.396;-1.510;2023-08-07T05:50:53;3;2;
55591;PMS5003;41454;53.396;-1.510;2023-08-07T05:53:21;2;2;
55591;PMS5003;41454;53.396;-1.510;2023-08-07T05:55:47;3;3;
55591;PMS5003;41454;53.396;-1.510;2023-08-07T05:58:14;3;2;
55591;PMS5003;41454;53.396;-1.510;2023-08-07T06:00:41;3;3;
55591;PMS5003;41454;53.396;-1.510;2023-08-07T06:03:08;2;2;
55591;PMS5003;41454;53.396;-1.510;2023-08-07T06:05:35;3;2;
55591;PMS5003;41454;53.396;-1.510;2023-08-07T06:08:03;5;5;
55591;PMS5003;41454;53.396;-1.510;2023-08-07T06:10:30;2;2;
55591;PMS5003;41454;53.396;-1.510;2023-08-07T06:12:58;2;2;
55591;PMS5003;41454;53.396;-1.510;2023-08-07T06:15:25;2;2;
55591;PMS5003;41454;53.396;-1.510;2023-08-07T06:17:53;2;2;
55591;PMS5003;41454;53.396;-1.510;2023-08-07T06:20:19;2;2;
55591;PMS5003;41454;53.396;-1.510;2023-08-07T06:22:46;2;2;
55591;PMS5003;41454;53.396;-1.510;2023-08-07T06:25:13;3;3;
55591;PMS5003;41454;53.396;-1.510;2023-08-07T06:27:40;1;1;
55591;PMS5003;41454;53.396;-1.510;2023-08-07T06:30:07;3;3;
55591;PMS5003;41454;53.396;-1.510;2023-08-07T06:32:35;3;2;
55591;PMS5003;41454;53.396;-1.510;2023-08-07T06:35:02;3;3;
55591;PMS5003;41454;53.396;-1.510;2023-08-07T06:37:29;3;3;
55591;PMS5003;41454;53.396;-1.510;2023-08-07T06:39:57;1;1;
55591;PMS5003;41454;53.396;-1.510;2023-08-07T06:42:24;3;3;
55591;PMS5003;41454;53.396;-1.510;2023-08-07T06:44:52;4;4;
55591;PMS5003;41454;53.396;-1.510;2023-08-07T06:47:19;2;2;
55591;PMS5003;41454;53.396;-1.510;2023-08-07T06:49:46;3;2;
55591;PMS5003;41454;53.396;-1.510;2023-08-07T06:52:13;3;3;
55591;PMS5003;41454;53.396;-1.510;2023-08-07T06:54:39;1;1;
55591;PMS5003;41454;53.396;-1.510;2023-08-07T06:57:07;4;4;
55591;PMS5003;41454;53.396;-1.510;2023-08-07T06:59:34;3;3;
55591;PMS5003;41454;53.396;-1.510;2023-08-07T07:02:00;3;3;
55591;PMS5003;41454;53.396;-1.510;2023-08-07T07:04:28;2;2;
55591;PMS5003;41454;53.396;-1.510;2023-08-07T07:06:54;2;2;
55591;PMS5003;41454;53.396;-1.510;2023-08-07T07:09:21;3;3;
55591;PMS5003;41454;53.396;-1.510;2023-08-07T07:11:49;2;2;
55591;PMS5003;41454;53.396;-1.510;2023-08-07T07:14:16;2;2;
55591;PMS5003;41454;53.396;-1.510;2023-08-07T07:16:44;3;3;
55591;PMS5003;41454;53.396;-1.510;2023-08-07T07:19:11;4;3;
55591;PMS5003;41454;53.396;-1.510;2023-08-07T07:21:38;3;2;
55591;PMS5003;41454;53.396;-1.510;2023-08-07T07:24:05;3;3;
55591;PMS5003;41454;53.396;-1.510;2023-08-07T07:26:31;3;1;
55591;PMS5003;41454;53.396;-1.510;2023-08-07T07:28:58;2;2;
55591;PMS5003;41454;53.396;-1.510;2023-08-07T07:31:26;3;3;
55591;PMS5003;41454;53.396;-1.510;2023-08-07T07:33:52;3;3;
55591;PMS5003;41454;53.396;-1.510;2023-08-07T07:36:19;3;3;
55591;PMS5003;41454;53.396;-1.510;2023-08-07T07:38:46;4;4;
55591;PMS5003;41454;53.396;-1.510;2023-08-07T07:41:13;3;3;
55591;PMS5003;41454;53.396;-1.510;2023-08-07T07:43:41;5;3;
55591;PMS5003;41454;53.396;-1.510;2023-08-07T07:46:07;5;4;
55591;PMS5003;41454;53.396;-1.510;2023-08-07T07:48:35;3;3;
55591;PMS5003;41454;53.396;-1.510;2023-08-07T07:51:02;6;6;
55591;PMS5003;41454;53.396;-1.510;2023-08-07T07:53:30;1;1;
55591;PMS5003;41454;53.396;-1.510;2023-08-07T07:55:58;3;3;
55591;PMS5003;41454;53.396;-1.510;2023-08-07T07:58:25;3;3;
55591;PMS5003;41454;53.396;-1.510;2023-08-07T08:00:52;5;5;
55591;PMS5003;41454;53.396;-1.510;2023-08-07T08:03:19;4;4;
55591;PMS5003;41454;53.396;-1.510;2023-08-07T08:05:48;4;4;
55591;PMS5003;41454;53.396;-1.510;2023-08-07T08:08:16;4;4;
55591;PMS5003;41454;53.396;-1.510;2023-08-07T08:10:44;2;2;
55591;PMS5003;41454;53.396;-1.510;2023-08-07T08:13:11;3;3;
55591;PMS5003;41454;53.396;-1.510;2023-08-07T08:15:38;2;2;
55591;PMS5003;41454;53.396;-1.510;2023-08-07T08:18:05;3;3;
55591;PMS5003;41454;53.396;-1.510;2023-08-07T08:20:32;4;4;
55591;PMS5003;41454;53.396;-1.510;2023-08-07T08:22:59;3;3;
55591;PMS5003;41454;53.396;-1.510;2023-08-07T08:25:26;1;1;
55591;PMS5003;41454;53.396;-1.510;2023-08-07T08:27:53;3;3;
55591;PMS5003;41454;53.396;-1.510;2023-08-07T08:30:21;4;3;
55591;PMS5003;41454;53.396;-1.510;2023-08-07T08:32:48;4;3;
55591;PMS5003;41454;53.396;-1.510;2023-08-07T08:35:16;2;2;
55591;PMS5003;41454;53.396;-1.510;2023-08-07T08:37:43;4;4;
55591;PMS5003;41454;53.396;-1.510;2023-08-07T08:40:15;4;4;
55591;PMS5003;41454;53.396;-1.510;2023-08-07T08:42:43;4;4;
55591;PMS5003;41454;53.396;-1.510;2023-08-07T08:45:11;4;4;
55591;PMS5003;41454;53.396;-1.510;2023-08-07T08:47:39;3;3;
55591;PMS5003;41454;53.396;-1.510;2023-08-07T08:50:09;3;2;
55591;PMS5003;41454;53.396;-1.510;2023-08-07T08:52:38;3;3;
55591;PMS5003;41454;53.396;-1.510;2023-08-07T08:55:07;3;3;
55591;PMS5003;41454;53.396;-1.510;2023-08-07T08:57:36;2;2;
55591;PMS5003;41454;53.396;-1.510;2023-08-07T09:00:06;2;2;
55591;PMS5003;41454;53.396;-1.510;2023-08-07T09:02:34;2;2;
55591;PMS5003;41454;53.396;-1.510;2023-08-07T09:05:01;2;2;
55591;PMS5003;41454;53.396;-1.510;2023-08-07T09:07:29;2;2;
55591;PMS5003;41454;53.396;-1.510;2023-08-07T09:09:56;3;3;
55591;PMS5003;41454;53.396;-1.510;2023-08-07T09:12:25;4;4;
55591;PMS5003;41454;53.396;-1.510;2023-08-07T09:14:56;3;3;
55591;PMS5003;41454;53.396;-1.510;2023-08-07T09:17:27;3;3;
55591;PMS5003;41454;53.396;-1.510;2023-08-07T09:19:54;3;3;
55591;PMS5003;41454;53.396;-1.510;2023-08-07T09:22:21;4;4;
55591;PMS5003;41454;53.396;-1.510;2023-08-07T09:24:48;3;3;
55591;PMS5003;41454;53.396;-1.510;2023-08-07T09:27:16;4;2;
55591;PMS5003;41454;53.396;-1.510;2023-08-07T09:29:43;2;2;
55591;PMS5003;41454;53.396;-1.510;2023-08-07T09:32:12;4;4;
55591;PMS5003;41454;53.396;-1.510;2023-08-07T09:34:39;4;4;
55591;PMS5003;41454;53.396;-1.510;2023-08-07T09:37:07;4;4;
55591;PMS5003;41454;53.396;-1.510;2023-08-07T09:39:35;3;2;
55591;PMS5003;41454;53.396;-1.510;2023-08-07T09:42:02;3;3;
55591;PMS5003;41454;53.396;-1.510;2023-08-07T09:44:34;3;3;
55591;PMS5003;41454;53.396;-1.510;2023-08-07T09:47:04;3;3;
55591;PMS5003;41454;53.396;-1.510;2023-08-07T09:49:38;3;2;
55591;PMS5003;41454;53.396;-1.510;2023-08-07T09:52:06;4;4;
55591;PMS5003;41454;53.396;-1.510;2023-08-07T09:54:34;3;3;
55591;PMS5003;41454;53.396;-1.510;2023-08-07T09:57:02;5;4;
55591;PMS5003;41454;53.396;-1.510;2023-08-07T09:59:30;7;7;
55591;PMS5003;41454;53.396;-1.510;2023-08-07T10:01:59;5;5;
55591;PMS5003;41454;53.396;-1.510;2023-08-07T10:04:26;5;5;
55591;PMS5003;41454;53.396;-1.510;2023-08-07T10:06:54;6;6;
55591;PMS5003;41454;53.396;-1.510;2023-08-07T10:09:21;6;5;
55591;PMS5003;41454;53.396;-1.510;2023-08-07T10:11:49;3;3;
55591;PMS5003;41454;53.396;-1.510;2023-08-07T10:14:18;4;4;
55591;PMS5003;41454;53.396;-1.510;2023-08-07T10:16:46;3;3;
55591;PMS5003;41454;53.396;-1.510;2023-08-07T10:19:13;4;4;
55591;PMS5003;41454;53.396;-1.510;2023-08-07T10:21:41;2;2;
55591;PMS5003;41454;53.396;-1.510;2023-08-07T10:24:09;4;3;
55591;PMS5003;41454;53.396;-1.510;2023-08-07T10:26:39;3;3;
55591;PMS5003;41454;53.396;-1.510;2023-08-07T10:29:09;4;4;
55591;PMS5003;41454;53.396;-1.510;2023-08-07T10:31:39;3;3;
55591;PMS5003;41454;53.396;-1.510;2023-08-07T10:34:08;2;2;
55591;PMS5003;41454;53.396;-1.510;2023-08-07T10:36:36;3;3;
55591;PMS5003;41454;53.396;-1.510;2023-08-07T10:39:07;1;1;
55591;PMS5003;41454;53.396;-1.510;2023-08-07T10:41:39;2;2;
55591;PMS5003;41454;53.396;-1.510;2023-08-07T10:44:16;3;3;
55591;PMS5003;41454;53.396;-1.510;2023-08-07T10:46:47;2;2;
55591;PMS5003;41454;53.396;-1.510;2023-08-07T10:49:29;3;2;
55591;PMS5003;41454;53.396;-1.510;2023-08-07T10:51:57;4;4;
55591;PMS5003;41454;53.396;-1.510;2023-08-07T10:54:24;3;3;
55591;PMS5003;41454;53.396;-1.510;2023-08-07T10:56:53;3;3;
55591;PMS5003;41454;53.396;-1.510;2023-08-07T10:59:20;3;3;
55591;PMS5003;41454;53.396;-1.510;2023-08-07T11:01:50;3;3;
55591;PMS5003;41454;53.396;-1.510;2023-08-07T11:04:21;3;3;
55591;PMS5003;41454;53.396;-1.510;2023-08-07T11:06:48;4;4;
55591;PMS5003;41454;53.396;-1.510;2023-08-07T11:09:16;2;2;
55591;PMS5003;41454;53.396;-1.510;2023-08-07T11:11:44;2;2;
55591;PMS5003;41454;53.396;-1.510;2023-08-07T11:14:12;3;3;
55591;PMS5003;41454;53.396;-1.510;2023-08-07T11:16:41;2;2;
55591;PMS5003;41454;53.396;-1.510;2023-08-07T11:19:09;3;3;
55591;PMS5003;41454;53.396;-1.510;2023-08-07T11:21:38;3;2;
55591;PMS5003;41454;53.396;-1.510;2023-08-07T11:24:06;1;1;
55591;PMS5003;41454;53.396;-1.510;2023-08-07T11:26:33;5;4;
55591;PMS5003;41454;53.396;-1.510;2023-08-07T11:29:00;4;4;
55591;PMS5003;41454;53.396;-1.510;2023-08-07T11:31:27;2;2;
55591;PMS5003;41454;53.396;-1.510;2023-08-07T11:33:55;2;2;
55591;PMS5003;41454;53.396;-1.510;2023-08-07T11:36:23;3;3;
55591;PMS5003;41454;53.396;-1.510;2023-08-07T11:38:51;2;2;
55591;PMS5003;41454;53.396;-1.510;2023-08-07T11:41:17;2;2;
55591;PMS5003;41454;53.396;-1.510;2023-08-07T11:43:45;2;2;
55591;PMS5003;41454;53.396;-1.510;2023-08-07T11:46:13;3;3;
55591;PMS5003;41454;53.396;-1.510;2023-08-07T11:48:42;1;1;
55591;PMS5003;41454;53.396;-1.510;2023-08-07T11:51:10;3;3;
55591;PMS5003;41454;53.396;-1.510;2023-08-07T11:53:38;3;1;
55591;PMS5003;41454;53.396;-1.510;2023-08-07T11:56:06;5;3;
55591;PMS5003;41454;53.396;-1.510;2023-08-07T11:58:35;3;3;
55591;PMS5003;41454;53.396;-1.510;2023-08-07T12:01:03;3;3;
55591;PMS5003;41454;53.396;-1.510;2023-08-07T12:03:31;3;3;
55591;PMS5003;41454;53.396;-1.510;2023-08-07T12:06:02;3;3;
55591;PMS5003;41454;53.396;-1.510;2023-08-07T12:08:31;2;2;
55591;PMS5003;41454;53.396;-1.510;2023-08-07T12:11:00;3;3;
55591;PMS5003;41454;53.396;-1.510;2023-08-07T12:13:28;1;1;
55591;PMS5003;41454;53.396;-1.510;2023-08-07T12:15:56;4;3;
55591;PMS5003;41454;53.396;-1.510;2023-08-07T12:18:26;5;4;
55591;PMS5003;41454;53.396;-1.510;2023-08-07T12:20:56;3;3;
55591;PMS5003;41454;53.396;-1.510;2023-08-07T12:23:24;3;2;
55591;PMS5003;41454;53.396;-1.510;2023-08-07T12:25:52;2;2;
55591;PMS5003;41454;53.396;-1.510;2023-08-07T12:28:20;3;3;
55591;PMS5003;41454;53.396;-1.510;2023-08-07T12:30:47;3;3;
55591;PMS5003;41454;53.396;-1.510;2023-08-07T12:33:16;1;1;
55591;PMS5003;41454;53.396;-1.510;2023-08-07T12:35:43;1;1;
55591;PMS5003;41454;53.396;-1.510;2023-08-07T12:38:10;3;3;
55591;PMS5003;41454;53.396;-1.510;2023-08-07T12:40:37;2;2;
55591;PMS5003;41454;53.396;-1.510;2023-08-07T12:43:04;2;2;
55591;PMS5003;41454;53.396;-1.510;2023-08-07T12:45:32;2;2;
55591;PMS5003;41454;53.396;-1.510;2023-08-07T12:47:59;2;2;
55591;PMS5003;41454;53.396;-1.510;2023-08-07T12:50:27;2;2;
55591;PMS5003;41454;53.396;-1.510;2023-08-07T12:52:54;3;3;
55591;PMS5003;41454;53.396;-1.510;2023-08-07T12:55:22;3;3;
55591;PMS5003;41454;53.396;-1.510;2023-08-07T12:57:50;2;2;
55591;PMS5003;41454;53.396;-1.510;2023-08-07T13:00:18;3;3;
55591;PMS5003;41454;53.396;-1.510;2023-08-07T13:02:46;3;3;
55591;PMS5003;41454;53.396;-1.510;2023-08-07T13:05:14;3;3;
55591;PMS5003;41454;53.396;-1.510;2023-08-07T13:07:41;3;3;
55591;PMS5003;41454;53.396;-1.510;2023-08-07T13:10:11;2;2;
55591;PMS5003;41454;53.396;-1.510;2023-08-07T13:12:40;3;3;
55591;PMS5003;41454;53.396;-1.510;2023-08-07T13:15:09;3;3;
55591;PMS5003;41454;53.396;-1.510;2023-08-07T13:17:38;2;2;
55591;PMS5003;41454;53.396;-1.510;2023-08-07T13:20:06;2;2;
55591;PMS5003;41454;53.396;-1.510;2023-08-07T13:22:34;5;5;
55591;PMS5003;41454;53.396;-1.510;2023-08-07T13:25:02;2;2;
55591;PMS5003;41454;53.396;-1.510;2023-08-07T13:27:30;3;3;
55591;PMS5003;41454;53.396;-1.510;2023-08-07T13:29:58;3;1;
55591;PMS5003;41454;53.396;-1.510;2023-08-07T13:32:25;3;3;
55591;PMS5003;41454;53.396;-1.510;2023-08-07T13:34:53;3;3;
55591;PMS5003;41454;53.396;-1.510;2023-08-07T13:37:20;4;4;
55591;PMS5003;41454;53.396;-1.510;2023-08-07T13:39:48;4;2;
55591;PMS5003;41454;53.396;-1.510;2023-08-07T13:42:15;0;0;
55591;PMS5003;41454;53.396;-1.510;2023-08-07T13:44:42;3;3;
55591;PMS5003;41454;53.396;-1.510;2023-08-07T13:47:10;2;2;
55591;PMS5003;41454;53.396;-1.510;2023-08-07T13:49:37;3;2;
55591;PMS5003;41454;53.396;-1.510;2023-08-07T13:52:04;3;3;
55591;PMS5003;41454;53.396;-1.510;2023-08-07T13:54:32;3;3;
55591;PMS5003;41454;53.396;-1.510;2023-08-07T13:56:59;4;2;
55591;PMS5003;41454;53.396;-1.510;2023-08-07T13:59:27;2;2;
55591;PMS5003;41454;53.396;-1.510;2023-08-07T14:01:53;2;2;
55591;PMS5003;41454;53.396;-1.510;2023-08-07T14:04:20;2;2;
55591;PMS5003;41454;53.396;-1.510;2023-08-07T14:06:48;3;3;
55591;PMS5003;41454;53.396;-1.510;2023-08-07T14:09:14;1;1;
55591;PMS5003;41454;53.396;-1.510;2023-08-07T14:11:41;1;1;
55591;PMS5003;41454;53.396;-1.510;2023-08-07T14:14:09;2;2;
55591;PMS5003;41454;53.396;-1.510;2023-08-07T14:16:36;2;2;
55591;PMS5003;41454;53.396;-1.510;2023-08-07T14:19:03;1;1;
55591;PMS5003;41454;53.396;-1.510;2023-08-07T14:21:29;1;1;
55591;PMS5003;41454;53.396;-1.510;2023-08-07T14:23:57;5;4;
55591;PMS5003;41454;53.396;-1.510;2023-08-07T14:26:24;4;2;
55591;PMS5003;41454;53.396;-1.510;2023-08-07T14:28:51;2;2;
55591;PMS5003;41454;53.396;-1.510;2023-08-07T14:31:19;2;2;
55591;PMS5003;41454;53.396;-1.510;2023-08-07T14:33:46;1;1;
55591;PMS5003;41454;53.396;-1.510;2023-08-07T14:36:12;2;2;
55591;PMS5003;41454;53.396;-1.510;2023-08-07T14:38:39;2;2;
55591;PMS5003;41454;53.396;-1.510;2023-08-07T14:41:06;1;1;
55591;PMS5003;41454;53.396;-1.510;2023-08-07T14:43:33;1;1;
55591;PMS5003;41454;53.396;-1.510;2023-08-07T14:46:00;2;2;
55591;PMS5003;41454;53.396;-1.510;2023-08-07T14:48:27;4;4;
55591;PMS5003;41454;53.396;-1.510;2023-08-07T14:50:55;3;2;
55591;PMS5003;41454;53.396;-1.510;2023-08-07T14:53:22;2;2;
55591;PMS5003;41454;53.396;-1.510;2023-08-07T14:55:49;2;2;
55591;PMS5003;41454;53.396;-1.510;2023-08-07T14:58:17;2;2;
55591;PMS5003;41454;53.396;-1.510;2023-08-07T15:00:43;1;1;
55591;PMS5003;41454;53.396;-1.510;2023-08-07T15:03:10;1;1;
55591;PMS5003;41454;53.396;-1.510;2023-08-07T15:05:37;1;1;
55591;PMS5003;41454;53.396;-1.510;2023-08-07T15:08:04;1;1;
55591;PMS5003;41454;53.396;-1.510;2023-08-07T15:10:30;1;1;
55591;PMS5003;41454;53.396;-1.510;2023-08-07T15:12:57;1;1;
55591;PMS5003;41454;53.396;-1.510;2023-08-07T15:15:25;1;1;
55591;PMS5003;41454;53.396;-1.510;2023-08-07T15:17:52;1;1;
55591;PMS5003;41454;53.396;-1.510;2023-08-07T15:20:19;1;1;
55591;PMS5003;41454;53.396;-1.510;2023-08-07T15:22:46;2;2;
55591;PMS5003;41454;53.396;-1.510;2023-08-07T15:25:14;1;1;
55591;PMS5003;41454;53.396;-1.510;2023-08-07T15:27:41;0;0;
55591;PMS5003;41454;53.396;-1.510;2023-08-07T15:30:09;1;1;
55591;PMS5003;41454;53.396;-1.510;2023-08-07T15:32:37;2;1;
55591;PMS5003;41454;53.396;-1.510;2023-08-07T15:35:04;1;1;
55591;PMS5003;41454;53.396;-1.510;2023-08-07T15:37:32;1;1;
55591;PMS5003;41454;53.396;-1.510;2023-08-07T15:39:59;2;2;
55591;PMS5003;41454;53.396;-1.510;2023-08-07T15:42:26;1;1;
55591;PMS5003;41454;53.396;-1.510;2023-08-07T15:44:53;1;1;
55591;PMS5003;41454;53.396;-1.510;2023-08-07T15:47:20;0;0;
55591;PMS5003;41454;53.396;-1.510;2023-08-07T15:49:47;1;1;
55591;PMS5003;41454;53.396;-1.510;2023-08-07T15:52:14;1;1;
55591;PMS5003;41454;53.396;-1.510;2023-08-07T15:54:41;2;2;
55591;PMS5003;41454;53.396;-1.510;2023-08-07T15:57:08;1;1;
55591;PMS5003;41454;53.396;-1.510;2023-08-07T15:59:35;2;2;
55591;PMS5003;41454;53.396;-1.510;2023-08-07T16:02:03;0;0;
55591;PMS5003;41454;53.396;-1.510;2023-08-07T16:04:30;2;2;
55591;PMS5003;41454;53.396;-1.510;2023-08-07T16:06:58;2;1;
55591;PMS5003;41454;53.396;-1.510;2023-08-07T16:09:25;2;2;
55591;PMS5003;41454;53.396;-1.510;2023-08-07T16:11:52;0;0;
55591;PMS5003;41454;53.396;-1.510;2023-08-07T16:14:19;0;0;
55591;PMS5003;41454;53.396;-1.510;2023-08-07T16:16:45;1;1;
55591;PMS5003;41454;53.396;-1.510;2023-08-07T16:19:12;0;0;
55591;PMS5003;41454;53.396;-1.510;2023-08-07T16:21:39;1;1;
55591;PMS5003;41454;53.396;-1.510;2023-08-07T16:24:05;2;2;
55591;PMS5003;41454;53.396;-1.510;2023-08-07T16:26:32;1;1;
55591;PMS5003;41454;53.396;-1.510;2023-08-07T16:28:59;2;1;
55591;PMS5003;41454;53.396;-1.510;2023-08-07T16:31:26;0;0;
55591;PMS5003;41454;53.396;-1.510;2023-08-07T16:33:53;2;2;
55591;PMS5003;41454;53.396;-1.510;2023-08-07T16:36:21;1;1;